sensor_id;sensor_type;location;lat;lon;timestamp;P1;durP1;ratioP1;P2;durP2;ratioP2
7747;SDS011;3918;42.564;23.164;2024-02-21T05:01:11;12.93;;;11.60;;
7747;SDS011;3918;42.564;23.164;2024-02-21T05:03:38;13.25;;;11.93;;
7747;SDS011;3918;42.564;23.164;2024-02-21T05:06:05;14.00;;;11.23;;
7747;SDS011;3918;42.564;23.164;2024-02-21T05:08:32;14.70;;;13.32;;
7747;SDS011;3918;42.564;23.164;2024-02-21T05:10:59;14.13;;;12.73;;
7747;SDS011;3918;42.564;23.164;2024-02-21T05:13:26;17.15;;;11.02;;
7747;SDS011;3918;42.564;23.164;2024-02-21T05:15:53;12.98;;;11.63;;
7747;SDS011;3918;42.564;23.164;2024-02-21T05:18:21;14.20;;;12.15;;
7747;SDS011;3918;42.564;23.164;2024-02-21T05:20:47;18.23;;;14.95;;
7747;SDS011;3918;42.564;23.164;2024-02-21T05:23:14;17.98;;;13.82;;
7747;SDS011;3918;42.564;23.164;2024-02-21T05:25:41;16.67;;;14.77;;
7747;SDS011;3918;42.564;23.164;2024-02-21T05:28:08;18.25;;;12.18;;
7747;SDS011;3918;42.564;23.164;2024-02-21T05:30:35;15.50;;;11.90;;
7747;SDS011;3918;42.564;23.164;2024-02-21T05:33:03;20.10;;;13.30;;
7747;SDS011;3918;42.564;23.164;2024-02-21T05:35:33;16.38;;;12.65;;
7747;SDS011;3918;42.564;23.164;2024-02-21T05:38:00;18.27;;;13.25;;
7747;SDS011;3918;42.564;23.164;2024-02-21T05:40:29;19.48;;;14.63;;
7747;SDS011;3918;42.564;23.164;2024-02-21T05:42:56;21.58;;;13.77;;
7747;SDS011;3918;42.564;23.164;2024-02-21T05:45:22;23.58;;;13.85;;
7747;SDS011;3918;42.564;23.164;2024-02-21T05:47:49;20.20;;;13.45;;
7747;SDS011;3918;42.564;23.164;2024-02-21T05:50:16;24.13;;;15.95;;
7747;SDS011;3918;42.564;23.164;2024-02-21T05:52:44;19.10;;;15.38;;
7747;SDS011;3918;42.564;23.164;2024-02-21T05:55:11;54.47;;;31.67;;
7747;SDS011;3918;42.564;23.164;2024-02-21T05:57:38;23.92;;;16.30;;
7747;SDS011;3918;42.564;23.164;2024-02-21T06:00:05;20.35;;;12.35;;
7747;SDS011;3918;42.564;23.164;2024-02-21T06:02:32;17.60;;;12.40;;
7747;SDS011;3918;42.564;23.164;2024-02-21T06:04:59;16.05;;;13.73;;
7747;SDS011;3918;42.564;23.164;2024-02-21T06:07:26;17.83;;;14.57;;
7747;SDS011;3918;42.564;23.164;2024-02-21T06:09:54;18.45;;;14.15;;
7747;SDS011;3918;42.564;23.164;2024-02-21T06:12:21;19.60;;;13.80;;
7747;SDS011;3918;42.564;23.164;2024-02-21T06:14:47;18.42;;;15.52;;
7747;SDS011;3918;42.564;23.164;2024-02-21T06:17:14;18.67;;;15.38;;
7747;SDS011;3918;42.564;23.164;2024-02-21T06:19:42;18.38;;;16.30;;
7747;SDS011;3918;42.564;23.164;2024-02-21T06:22:09;18.73;;;15.73;;
7747;SDS011;3918;42.564;23.164;2024-02-21T06:24:36;18.08;;;14.13;;
7747;SDS011;3918;42.564;23.164;2024-02-21T06:27:04;18.58;;;14.25;;
7747;SDS011;3918;42.564;23.164;2024-02-21T06:29:32;18.70;;;15.48;;
7747;SDS011;3918;42.564;23.164;2024-02-21T06:31:59;20.40;;;14.73;;
7747;SDS011;3918;42.564;23.164;2024-02-21T06:34:25;19.98;;;15.60;;
7747;SDS011;3918;42.564;23.164;2024-02-21T06:36:52;18.95;;;16.55;;
7747;SDS011;3918;42.564;23.164;2024-02-21T06:39:19;18.63;;;12.88;;
7747;SDS011;3918;42.564;23.164;2024-02-21T06:41:48;18.50;;;13.10;;
7747;SDS011;3918;42.564;23.164;2024-02-21T06:44:17;20.70;;;13.88;;
7747;SDS011;3918;42.564;23.164;2024-02-21T06:46:44;19.10;;;13.30;;
7747;SDS011;3918;42.564;23.164;2024-02-21T06:49:10;23.63;;;16.27;;
7747;SDS011;3918;42.564;23.164;2024-02-21T06:51:40;22.08;;;15.18;;
7747;SDS011;3918;42.564;23.164;2024-02-21T06:54:07;22.23;;;14.23;;
7747;SDS011;3918;42.564;23.164;2024-02-21T06:56:34;16.83;;;13.32;;
7747;SDS011;3918;42.564;23.164;2024-02-21T06:59:02;25.17;;;14.20;;
7747;SDS011;3918;42.564;23.164;2024-02-21T07:01:30;16.67;;;12.25;;
7747;SDS011;3918;42.564;23.164;2024-02-21T07:03:57;19.17;;;13.38;;
7747;SDS011;3918;42.564;23.164;2024-02-21T07:06:24;19.13;;;13.13;;
7747;SDS011;3918;42.564;23.164;2024-02-21T07:08:50;19.65;;;11.85;;
7747;SDS011;3918;42.564;23.164;2024-02-21T07:11:17;18.45;;;11.50;;
7747;SDS011;3918;42.564;23.164;2024-02-21T07:13:44;21.03;;;13.60;;
7747;SDS011;3918;42.564;23.164;2024-02-21T07:16:11;19.07;;;13.03;;
7747;SDS011;3918;42.564;23.164;2024-02-21T07:18:39;20.80;;;12.38;;
7747;SDS011;3918;42.564;23.164;2024-02-21T07:21:05;17.10;;;12.18;;
7747;SDS011;3918;42.564;23.164;2024-02-21T07:23:32;17.50;;;11.48;;
7747;SDS011;3918;42.564;23.164;2024-02-21T07:25:59;19.13;;;12.38;;
7747;SDS011;3918;42.564;23.164;2024-02-21T07:28:25;16.08;;;10.95;;
7747;SDS011;3918;42.564;23.164;2024-02-21T07:30:52;15.90;;;10.52;;
7747;SDS011;3918;42.564;23.164;2024-02-21T07:33:19;22.23;;;11.52;;
7747;SDS011;3918;42.564;23.164;2024-02-21T07:35:47;15.27;;;10.20;;
7747;SDS011;3918;42.564;23.164;2024-02-21T07:38:14;15.80;;;9.75;;
7747;SDS011;3918;42.564;23.164;2024-02-21T07:40:43;16.83;;;10.82;;
7747;SDS011;3918;42.564;23.164;2024-02-21T07:43:10;16.98;;;10.45;;
7747;SDS011;3918;42.564;23.164;2024-02-21T07:45:37;13.25;;;9.68;;
7747;SDS011;3918;42.564;23.164;2024-02-21T07:48:05;17.15;;;10.48;;
7747;SDS011;3918;42.564;23.164;2024-02-21T07:50:32;18.23;;;11.23;;
7747;SDS011;3918;42.564;23.164;2024-02-21T07:53:00;18.35;;;10.75;;
7747;SDS011;3918;42.564;23.164;2024-02-21T07:55:27;17.73;;;9.80;;
7747;SDS011;3918;42.564;23.164;2024-02-21T07:57:54;16.20;;;10.38;;
7747;SDS011;3918;42.564;23.164;2024-02-21T08:00:21;15.70;;;10.75;;
7747;SDS011;3918;42.564;23.164;2024-02-21T08:02:48;13.73;;;10.25;;
7747;SDS011;3918;42.564;23.164;2024-02-21T08:05:15;17.45;;;11.07;;
7747;SDS011;3918;42.564;23.164;2024-02-21T08:07:42;15.18;;;9.77;;
7747;SDS011;3918;42.564;23.164;2024-02-21T08:10:10;19.10;;;12.65;;
7747;SDS011;3918;42.564;23.164;2024-02-21T08:12:37;15.75;;;10.98;;
7747;SDS011;3918;42.564;23.164;2024-02-21T08:15:04;13.93;;;10.52;;
7747;SDS011;3918;42.564;23.164;2024-02-21T08:17:33;20.67;;;11.52;;
7747;SDS011;3918;42.564;23.164;2024-02-21T08:19:59;15.35;;;10.02;;
7747;SDS011;3918;42.564;23.164;2024-02-21T08:22:26;15.45;;;10.80;;
7747;SDS011;3918;42.564;23.164;2024-02-21T08:24:53;18.65;;;10.55;;
7747;SDS011;3918;42.564;23.164;2024-02-21T08:27:21;20.30;;;9.80;;
7747;SDS011;3918;42.564;23.164;2024-02-21T08:29:48;22.42;;;10.90;;
7747;SDS011;3918;42.564;23.164;2024-02-21T08:32:15;20.58;;;10.18;;
7747;SDS011;3918;42.564;23.164;2024-02-21T08:34:42;19.35;;;9.50;;
7747;SDS011;3918;42.564;23.164;2024-02-21T08:37:09;19.40;;;9.75;;
7747;SDS011;3918;42.564;23.164;2024-02-21T08:39:36;12.63;;;8.80;;
7747;SDS011;3918;42.564;23.164;2024-02-21T08:42:04;15.02;;;9.10;;
7747;SDS011;3918;42.564;23.164;2024-02-21T08:44:32;13.55;;;7.97;;
7747;SDS011;3918;42.564;23.164;2024-02-21T08:46:59;11.65;;;8.02;;
7747;SDS011;3918;42.564;23.164;2024-02-21T08:49:28;14.10;;;8.20;;
7747;SDS011;3918;42.564;23.164;2024-02-21T08:51:56;11.82;;;7.70;;
7747;SDS011;3918;42.564;23.164;2024-02-21T08:54:23;12.70;;;8.15;;
7747;SDS011;3918;42.564;23.164;2024-02-21T08:56:49;23.67;;;8.73;;
7747;SDS011;3918;42.564;23.164;2024-02-21T08:59:16;16.05;;;7.95;;
7747;SDS011;3918;42.564;23.164;2024-02-21T09:01:44;13.25;;;8.00;;
7747;SDS011;3918;42.564;23.164;2024-02-21T09:04:11;10.45;;;7.10;;
7747;SDS011;3918;42.564;23.164;2024-02-21T09:06:38;10.30;;;7.15;;
7747;SDS011;3918;42.564;23.164;2024-02-21T09:09:07;10.98;;;7.47;;
7747;SDS011;3918;42.564;23.164;2024-02-21T09:11:35;12.55;;;7.65;;
7747;SDS011;3918;42.564;23.164;2024-02-21T09:14:02;9.38;;;7.43;;
7747;SDS011;3918;42.564;23.164;2024-02-21T09:16:29;23.33;;;8.15;;
7747;SDS011;3918;42.564;23.164;2024-02-21T09:18:58;11.60;;;7.55;;
7747;SDS011;3918;42.564;23.164;2024-02-21T09:21:25;11.77;;;8.25;;
7747;SDS011;3918;42.564;23.164;2024-02-21T09:23:53;12.35;;;7.72;;
7747;SDS011;3918;42.564;23.164;2024-02-21T09:26:19;10.93;;;6.80;;
7747;SDS011;3918;42.564;23.164;2024-02-21T09:28:46;13.05;;;8.98;;
7747;SDS011;3918;42.564;23.164;2024-02-21T09:31:13;13.13;;;7.82;;
7747;SDS011;3918;42.564;23.164;2024-02-21T09:33:40;12.13;;;8.60;;
7747;SDS011;3918;42.564;23.164;2024-02-21T09:36:08;14.60;;;7.70;;
7747;SDS011;3918;42.564;23.164;2024-02-21T09:38:34;11.48;;;7.20;;
7747;SDS011;3918;42.564;23.164;2024-02-21T09:41:03;12.25;;;7.15;;
7747;SDS011;3918;42.564;23.164;2024-02-21T09:43:35;13.98;;;7.65;;
7747;SDS011;3918;42.564;23.164;2024-02-21T09:46:04;11.23;;;7.53;;
7747;SDS011;3918;42.564;23.164;2024-02-21T09:48:36;18.98;;;7.55;;
7747;SDS011;3918;42.564;23.164;2024-02-21T09:51:14;9.63;;;7.22;;
7747;SDS011;3918;42.564;23.164;2024-02-21T09:53:43;10.52;;;7.78;;
7747;SDS011;3918;42.564;23.164;2024-02-21T09:56:12;10.70;;;7.28;;
7747;SDS011;3918;42.564;23.164;2024-02-21T09:58:39;8.85;;;6.43;;
7747;SDS011;3918;42.564;23.164;2024-02-21T10:01:07;15.45;;;6.95;;
7747;SDS011;3918;42.564;23.164;2024-02-21T10:03:34;8.75;;;6.72;;
7747;SDS011;3918;42.564;23.164;2024-02-21T10:06:01;8.85;;;6.32;;
7747;SDS011;3918;42.564;23.164;2024-02-21T10:08:29;9.02;;;6.32;;
7747;SDS011;3918;42.564;23.164;2024-02-21T10:10:55;9.13;;;6.47;;
7747;SDS011;3918;42.564;23.164;2024-02-21T10:13:25;8.27;;;6.35;;
7747;SDS011;3918;42.564;23.164;2024-02-21T10:16:02;9.02;;;6.75;;
7747;SDS011;3918;42.564;23.164;2024-02-21T10:18:32;9.20;;;7.15;;
7747;SDS011;3918;42.564;23.164;2024-02-21T10:21:00;13.48;;;7.05;;
7747;SDS011;3918;42.564;23.164;2024-02-21T10:23:29;10.02;;;6.68;;
7747;SDS011;3918;42.564;23.164;2024-02-21T10:26:07;13.95;;;7.35;;
7747;SDS011;3918;42.564;23.164;2024-02-21T10:28:34;10.93;;;6.65;;
7747;SDS011;3918;42.564;23.164;2024-02-21T10:31:01;21.50;;;7.60;;
7747;SDS011;3918;42.564;23.164;2024-02-21T10:33:27;10.40;;;7.07;;
7747;SDS011;3918;42.564;23.164;2024-02-21T10:36:05;9.10;;;5.82;;
7747;SDS011;3918;42.564;23.164;2024-02-21T10:38:35;10.02;;;6.93;;
7747;SDS011;3918;42.564;23.164;2024-02-21T10:41:03;16.40;;;6.75;;
7747;SDS011;3918;42.564;23.164;2024-02-21T10:43:37;26.27;;;7.20;;
7747;SDS011;3918;42.564;23.164;2024-02-21T10:46:06;7.53;;;5.97;;
7747;SDS011;3918;42.564;23.164;2024-02-21T10:48:38;7.30;;;5.82;;
7747;SDS011;3918;42.564;23.164;2024-02-21T10:51:12;17.05;;;5.88;;
7747;SDS011;3918;42.564;23.164;2024-02-21T10:53:45;7.15;;;5.43;;
7747;SDS011;3918;42.564;23.164;2024-02-21T10:56:26;7.18;;;5.30;;
7747;SDS011;3918;42.564;23.164;2024-02-21T10:58:56;7.72;;;4.97;;
7747;SDS011;3918;42.564;23.164;2024-02-21T11:01:24;10.25;;;5.00;;
7747;SDS011;3918;42.564;23.164;2024-02-21T11:03:52;6.65;;;5.15;;
7747;SDS011;3918;42.564;23.164;2024-02-21T11:06:21;4.82;;;4.07;;
7747;SDS011;3918;42.564;23.164;2024-02-21T11:09:00;7.80;;;3.85;;
7747;SDS011;3918;42.564;23.164;2024-02-21T11:11:27;5.78;;;4.47;;
7747;SDS011;3918;42.564;23.164;2024-02-21T11:14:03;5.25;;;4.50;;
7747;SDS011;3918;42.564;23.164;2024-02-21T11:16:34;5.43;;;4.38;;
7747;SDS011;3918;42.564;23.164;2024-02-21T11:19:04;6.60;;;5.43;;
7747;SDS011;3918;42.564;23.164;2024-02-21T11:21:35;5.45;;;4.93;;
7747;SDS011;3918;42.564;23.164;2024-02-21T11:24:03;7.95;;;5.35;;
7747;SDS011;3918;42.564;23.164;2024-02-21T11:26:31;8.20;;;5.78;;
7747;SDS011;3918;42.564;23.164;2024-02-21T11:28:59;6.70;;;5.35;;
7747;SDS011;3918;42.564;23.164;2024-02-21T11:31:26;6.80;;;5.47;;
7747;SDS011;3918;42.564;23.164;2024-02-21T11:33:53;10.82;;;4.93;;
7747;SDS011;3918;42.564;23.164;2024-02-21T11:36:26;11.73;;;5.55;;
7747;SDS011;3918;42.564;23.164;2024-02-21T11:38:53;12.80;;;5.95;;
7747;SDS011;3918;42.564;23.164;2024-02-21T11:41:21;8.82;;;5.18;;
7747;SDS011;3918;42.564;23.164;2024-02-21T11:43:48;9.00;;;5.20;;
7747;SDS011;3918;42.564;23.164;2024-02-21T11:46:16;6.00;;;4.78;;
7747;SDS011;3918;42.564;23.164;2024-02-21T11:48:43;9.57;;;5.20;;
7747;SDS011;3918;42.564;23.164;2024-02-21T11:51:20;8.00;;;5.55;;
7747;SDS011;3918;42.564;23.164;2024-02-21T11:53:47;15.75;;;5.82;;
7747;SDS011;3918;42.564;23.164;2024-02-21T11:56:15;6.90;;;4.85;;
7747;SDS011;3918;42.564;23.164;2024-02-21T11:58:44;10.68;;;5.60;;
7747;SDS011;3918;42.564;23.164;2024-02-21T12:01:10;9.73;;;4.97;;
7747;SDS011;3918;42.564;23.164;2024-02-21T12:03:37;6.30;;;4.53;;
7747;SDS011;3918;42.564;23.164;2024-02-21T12:06:06;6.28;;;3.90;;
7747;SDS011;3918;42.564;23.164;2024-02-21T12:08:40;13.00;;;5.55;;
7747;SDS011;3918;42.564;23.164;2024-02-21T12:11:15;8.45;;;5.00;;
7747;SDS011;3918;42.564;23.164;2024-02-21T12:13:44;10.23;;;5.38;;
7747;SDS011;3918;42.564;23.164;2024-02-21T12:16:14;9.45;;;5.00;;
7747;SDS011;3918;42.564;23.164;2024-02-21T12:18:43;6.65;;;5.13;;
7747;SDS011;3918;42.564;23.164;2024-02-21T12:21:12;5.00;;;4.28;;
7747;SDS011;3918;42.564;23.164;2024-02-21T12:23:39;10.70;;;4.57;;
7747;SDS011;3918;42.564;23.164;2024-02-21T12:26:06;7.25;;;5.03;;
7747;SDS011;3918;42.564;23.164;2024-02-21T12:28:33;19.90;;;5.60;;
7747;SDS011;3918;42.564;23.164;2024-02-21T12:31:02;12.38;;;5.55;;
7747;SDS011;3918;42.564;23.164;2024-02-21T12:33:29;7.15;;;5.50;;
7747;SDS011;3918;42.564;23.164;2024-02-21T12:35:56;8.13;;;5.38;;
7747;SDS011;3918;42.564;23.164;2024-02-21T12:38:23;9.02;;;5.07;;
7747;SDS011;3918;42.564;23.164;2024-02-21T12:40:50;6.20;;;4.72;;
7747;SDS011;3918;42.564;23.164;2024-02-21T12:43:17;5.70;;;5.07;;
7747;SDS011;3918;42.564;23.164;2024-02-21T12:45:44;7.63;;;4.65;;
7747;SDS011;3918;42.564;23.164;2024-02-21T12:48:13;8.45;;;4.75;;
7747;SDS011;3918;42.564;23.164;2024-02-21T12:50:40;4.97;;;4.45;;
7747;SDS011;3918;42.564;23.164;2024-02-21T12:53:07;8.35;;;5.35;;
7747;SDS011;3918;42.564;23.164;2024-02-21T12:55:34;5.78;;;4.90;;
7747;SDS011;3918;42.564;23.164;2024-02-21T12:58:03;7.93;;;4.72;;
7747;SDS011;3918;42.564;23.164;2024-02-21T13:00:30;5.80;;;4.00;;
7747;SDS011;3918;42.564;23.164;2024-02-21T13:02:57;5.70;;;4.25;;
7747;SDS011;3918;42.564;23.164;2024-02-21T13:05:25;5.85;;;4.43;;
7747;SDS011;3918;42.564;23.164;2024-02-21T13:07:52;6.35;;;4.75;;
7747;SDS011;3918;42.564;23.164;2024-02-21T13:10:19;4.97;;;4.50;;
7747;SDS011;3918;42.564;23.164;2024-02-21T13:12:46;6.18;;;4.10;;
7747;SDS011;3918;42.564;23.164;2024-02-21T13:15:13;7.13;;;5.25;;
7747;SDS011;3918;42.564;23.164;2024-02-21T13:17:41;5.57;;;4.70;;
7747;SDS011;3918;42.564;23.164;2024-02-21T13:20:08;6.50;;;5.32;;
7747;SDS011;3918;42.564;23.164;2024-02-21T13:22:37;5.78;;;4.57;;
7747;SDS011;3918;42.564;23.164;2024-02-21T13:25:04;6.65;;;4.75;;
7747;SDS011;3918;42.564;23.164;2024-02-21T13:27:35;5.45;;;4.50;;
7747;SDS011;3918;42.564;23.164;2024-02-21T13:30:02;5.20;;;4.70;;
7747;SDS011;3918;42.564;23.164;2024-02-21T13:32:31;7.63;;;5.07;;
7747;SDS011;3918;42.564;23.164;2024-02-21T13:34:58;10.43;;;5.20;;
7747;SDS011;3918;42.564;23.164;2024-02-21T13:37:26;7.80;;;5.00;;
7747;SDS011;3918;42.564;23.164;2024-02-21T13:39:55;6.18;;;4.30;;
7747;SDS011;3918;42.564;23.164;2024-02-21T13:42:21;6.35;;;4.72;;
7747;SDS011;3918;42.564;23.164;2024-02-21T13:44:49;5.28;;;4.63;;
7747;SDS011;3918;42.564;23.164;2024-02-21T13:47:15;18.13;;;4.90;;
7747;SDS011;3918;42.564;23.164;2024-02-21T13:49:43;6.70;;;4.63;;
7747;SDS011;3918;42.564;23.164;2024-02-21T13:52:09;5.53;;;4.38;;
7747;SDS011;3918;42.564;23.164;2024-02-21T13:54:36;8.32;;;4.85;;
7747;SDS011;3918;42.564;23.164;2024-02-21T13:57:04;10.13;;;5.00;;
7747;SDS011;3918;42.564;23.164;2024-02-21T13:59:31;7.05;;;4.32;;
7747;SDS011;3918;42.564;23.164;2024-02-21T14:01:58;8.48;;;4.70;;
7747;SDS011;3918;42.564;23.164;2024-02-21T14:04:25;7.38;;;4.93;;
7747;SDS011;3918;42.564;23.164;2024-02-21T14:06:52;11.25;;;4.50;;
7747;SDS011;3918;42.564;23.164;2024-02-21T14:09:19;6.35;;;4.65;;
7747;SDS011;3918;42.564;23.164;2024-02-21T14:11:45;13.25;;;4.80;;
7747;SDS011;3918;42.564;23.164;2024-02-21T14:14:14;6.88;;;3.85;;
7747;SDS011;3918;42.564;23.164;2024-02-21T14:16:41;8.25;;;4.53;;
7747;SDS011;3918;42.564;23.164;2024-02-21T14:19:08;8.43;;;4.47;;
7747;SDS011;3918;42.564;23.164;2024-02-21T14:21:36;10.52;;;4.20;;
7747;SDS011;3918;42.564;23.164;2024-02-21T14:24:03;6.22;;;4.18;;
7747;SDS011;3918;42.564;23.164;2024-02-21T14:26:33;9.85;;;4.50;;
7747;SDS011;3918;42.564;23.164;2024-02-21T14:29:01;5.85;;;4.47;;
7747;SDS011;3918;42.564;23.164;2024-02-21T14:31:29;7.40;;;4.28;;
7747;SDS011;3918;42.564;23.164;2024-02-21T14:33:57;6.90;;;4.53;;
7747;SDS011;3918;42.564;23.164;2024-02-21T14:36:24;16.08;;;4.93;;
7747;SDS011;3918;42.564;23.164;2024-02-21T14:38:52;7.68;;;5.03;;
7747;SDS011;3918;42.564;23.164;2024-02-21T14:41:19;9.48;;;4.30;;
7747;SDS011;3918;42.564;23.164;2024-02-21T14:43:45;10.27;;;4.85;;
7747;SDS011;3918;42.564;23.164;2024-02-21T14:46:12;9.70;;;4.65;;
7747;SDS011;3918;42.564;23.164;2024-02-21T14:48:40;6.57;;;4.57;;
7747;SDS011;3918;42.564;23.164;2024-02-21T14:51:07;9.13;;;4.43;;
7747;SDS011;3918;42.564;23.164;2024-02-21T14:53:34;7.78;;;4.28;;
7747;SDS011;3918;42.564;23.164;2024-02-21T14:56:00;5.70;;;4.07;;
7747;SDS011;3918;42.564;23.164;2024-02-21T14:58:27;28.48;;;5.82;;
7747;SDS011;3918;42.564;23.164;2024-02-21T15:00:54;5.93;;;4.20;;
7747;SDS011;3918;42.564;23.164;2024-02-21T15:03:21;6.10;;;4.07;;
7747;SDS011;3918;42.564;23.164;2024-02-21T15:05:49;9.50;;;4.18;;
7747;SDS011;3918;42.564;23.164;2024-02-21T15:08:15;15.32;;;5.07;;
7747;SDS011;3918;42.564;23.164;2024-02-21T15:10:44;7.38;;;4.15;;
7747;SDS011;3918;42.564;23.164;2024-02-21T15:13:11;4.15;;;3.70;;
7747;SDS011;3918;42.564;23.164;2024-02-21T15:15:38;5.10;;;3.97;;
7747;SDS011;3918;42.564;23.164;2024-02-21T15:18:05;6.78;;;3.92;;
7747;SDS011;3918;42.564;23.164;2024-02-21T15:20:31;5.13;;;4.00;;
7747;SDS011;3918;42.564;23.164;2024-02-21T15:22:59;7.88;;;3.60;;
7747;SDS011;3918;42.564;23.164;2024-02-21T15:25:29;4.20;;;3.60;;
7747;SDS011;3918;42.564;23.164;2024-02-21T15:27:56;3.05;;;2.75;;
7747;SDS011;3918;42.564;23.164;2024-02-21T15:30:24;3.35;;;3.05;;
7747;SDS011;3918;42.564;23.164;2024-02-21T15:32:51;4.80;;;3.35;;
7747;SDS011;3918;42.564;23.164;2024-02-21T15:35:20;4.97;;;3.90;;
7747;SDS011;3918;42.564;23.164;2024-02-21T15:37:47;5.90;;;3.78;;
7747;SDS011;3918;42.564;23.164;2024-02-21T15:40:15;3.90;;;3.55;;
7747;SDS011;3918;42.564;23.164;2024-02-21T15:42:43;4.68;;;3.60;;
7747;SDS011;3918;42.564;23.164;2024-02-21T15:45:10;8.13;;;3.95;;
7747;SDS011;3918;42.564;23.164;2024-02-21T15:47:36;10.25;;;4.05;;
7747;SDS011;3918;42.564;23.164;2024-02-21T15:50:03;7.22;;;4.00;;
7747;SDS011;3918;42.564;23.164;2024-02-21T15:52:31;5.35;;;4.35;;
7747;SDS011;3918;42.564;23.164;2024-02-21T15:54:58;8.65;;;4.63;;
7747;SDS011;3918;42.564;23.164;2024-02-21T15:57:26;6.43;;;4.78;;
7747;SDS011;3918;42.564;23.164;2024-02-21T15:59:53;8.27;;;4.80;;
7747;SDS011;3918;42.564;23.164;2024-02-21T16:02:20;6.90;;;4.43;;
7747;SDS011;3918;42.564;23.164;2024-02-21T16:04:49;9.27;;;4.63;;
7747;SDS011;3918;42.564;23.164;2024-02-21T16:07:16;6.68;;;4.55;;
7747;SDS011;3918;42.564;23.164;2024-02-21T16:09:43;8.52;;;4.95;;
7747;SDS011;3918;42.564;23.164;2024-02-21T16:12:12;10.02;;;5.45;;
7747;SDS011;3918;42.564;23.164;2024-02-21T16:14:41;11.00;;;5.57;;
7747;SDS011;3918;42.564;23.164;2024-02-21T16:17:07;12.05;;;6.78;;
7747;SDS011;3918;42.564;23.164;2024-02-21T16:19:35;10.57;;;5.82;;
7747;SDS011;3918;42.564;23.164;2024-02-21T16:22:01;6.80;;;5.20;;
7747;SDS011;3918;42.564;23.164;2024-02-21T16:24:29;9.32;;;5.95;;
7747;SDS011;3918;42.564;23.164;2024-02-21T16:26:56;5.40;;;4.38;;
7747;SDS011;3918;42.564;23.164;2024-02-21T16:29:23;5.97;;;4.57;;
7747;SDS011;3918;42.564;23.164;2024-02-21T16:31:51;6.28;;;4.45;;
7747;SDS011;3918;42.564;23.164;2024-02-21T16:34:18;4.78;;;4.38;;
7747;SDS011;3918;42.564;23.164;2024-02-21T16:36:45;5.57;;;4.10;;
7747;SDS011;3918;42.564;23.164;2024-02-21T16:39:12;3.80;;;3.42;;
7747;SDS011;3918;42.564;23.164;2024-02-21T16:41:39;5.28;;;3.40;;
7747;SDS011;3918;42.564;23.164;2024-02-21T16:44:05;4.53;;;3.83;;
7747;SDS011;3918;42.564;23.164;2024-02-21T16:46:32;6.20;;;3.80;;
7747;SDS011;3918;42.564;23.164;2024-02-21T16:49:00;7.75;;;4.13;;
7747;SDS011;3918;42.564;23.164;2024-02-21T16:51:27;7.38;;;5.22;;
7747;SDS011;3918;42.564;23.164;2024-02-21T16:53:54;8.20;;;5.20;;
7747;SDS011;3918;42.564;23.164;2024-02-21T16:56:20;8.70;;;5.07;;
7747;SDS011;3918;42.564;23.164;2024-02-21T16:58:47;6.85;;;5.10;;
7747;SDS011;3918;42.564;23.164;2024-02-21T17:01:14;6.93;;;5.07;;
7747;SDS011;3918;42.564;23.164;2024-02-21T17:03:41;7.80;;;5.30;;
7747;SDS011;3918;42.564;23.164;2024-02-21T17:06:09;5.93;;;4.40;;
7747;SDS011;3918;42.564;23.164;2024-02-21T17:08:38;8.27;;;4.65;;
7747;SDS011;3918;42.564;23.164;2024-02-21T17:11:08;7.13;;;4.63;;
7747;SDS011;3918;42.564;23.164;2024-02-21T17:13:36;6.90;;;4.38;;
7747;SDS011;3918;42.564;23.164;2024-02-21T17:16:03;6.93;;;5.43;;
7747;SDS011;3918;42.564;23.164;2024-02-21T17:21:16;8.05;;;6.40;;
7747;SDS011;3918;42.564;23.164;2024-02-21T17:23:43;7.20;;;5.47;;
7747;SDS011;3918;42.564;23.164;2024-02-21T17:26:10;10.75;;;6.13;;
7747;SDS011;3918;42.564;23.164;2024-02-21T17:28:37;7.18;;;5.35;;
7747;SDS011;3918;42.564;23.164;2024-02-21T17:31:15;10.07;;;6.20;;
7747;SDS011;3918;42.564;23.164;2024-02-21T17:33:42;10.65;;;6.30;;
7747;SDS011;3918;42.564;23.164;2024-02-21T17:36:10;13.10;;;7.68;;
7747;SDS011;3918;42.564;23.164;2024-02-21T17:38:39;8.63;;;6.78;;
7747;SDS011;3918;42.564;23.164;2024-02-21T17:41:07;10.23;;;7.65;;
7747;SDS011;3918;42.564;23.164;2024-02-21T17:43:34;11.00;;;8.10;;
7747;SDS011;3918;42.564;23.164;2024-02-21T17:46:01;13.98;;;7.90;;
7747;SDS011;3918;42.564;23.164;2024-02-21T17:48:32;10.70;;;8.10;;
7747;SDS011;3918;42.564;23.164;2024-02-21T17:50:58;9.52;;;8.32;;
7747;SDS011;3918;42.564;23.164;2024-02-21T17:53:25;13.02;;;10.35;;
7747;SDS011;3918;42.564;23.164;2024-02-21T17:55:54;11.80;;;8.93;;
7747;SDS011;3918;42.564;23.164;2024-02-21T17:58:21;9.85;;;8.98;;
7747;SDS011;3918;42.564;23.164;2024-02-21T18:00:48;9.55;;;8.75;;
7747;SDS011;3918;42.564;23.164;2024-02-21T18:03:16;10.27;;;9.27;;
7747;SDS011;3918;42.564;23.164;2024-02-21T18:05:44;10.02;;;9.15;;
7747;SDS011;3918;42.564;23.164;2024-02-21T18:08:13;10.52;;;9.38;;
7747;SDS011;3918;42.564;23.164;2024-02-21T18:10:40;9.57;;;8.77;;
7747;SDS011;3918;42.564;23.164;2024-02-21T18:13:08;11.90;;;10.70;;
7747;SDS011;3918;42.564;23.164;2024-02-21T18:15:34;13.60;;;12.30;;
7747;SDS011;3918;42.564;23.164;2024-02-21T18:18:01;12.32;;;11.15;;
7747;SDS011;3918;42.564;23.164;2024-02-21T18:20:29;11.95;;;10.75;;
7747;SDS011;3918;42.564;23.164;2024-02-21T18:22:56;12.90;;;11.82;;
7747;SDS011;3918;42.564;23.164;2024-02-21T18:25:22;12.77;;;11.63;;
7747;SDS011;3918;42.564;23.164;2024-02-21T18:27:50;12.50;;;11.40;;
7747;SDS011;3918;42.564;23.164;2024-02-21T18:30:19;13.82;;;12.65;;
7747;SDS011;3918;42.564;23.164;2024-02-21T18:32:47;13.70;;;12.30;;
7747;SDS011;3918;42.564;23.164;2024-02-21T18:35:15;11.95;;;11.05;;
7747;SDS011;3918;42.564;23.164;2024-02-21T18:37:41;12.65;;;11.63;;
7747;SDS011;3918;42.564;23.164;2024-02-21T18:40:09;13.10;;;12.10;;
7747;SDS011;3918;42.564;23.164;2024-02-21T18:42:37;13.63;;;12.63;;
7747;SDS011;3918;42.564;23.164;2024-02-21T18:45:05;13.05;;;12.15;;
7747;SDS011;3918;42.564;23.164;2024-02-21T18:47:34;12.43;;;11.32;;
7747;SDS011;3918;42.564;23.164;2024-02-21T18:50:01;12.32;;;11.52;;
7747;SDS011;3918;42.564;23.164;2024-02-21T18:52:27;12.55;;;11.60;;
7747;SDS011;3918;42.564;23.164;2024-02-21T18:54:53;11.60;;;10.90;;
7747;SDS011;3918;42.564;23.164;2024-02-21T18:57:20;13.57;;;12.55;;
7747;SDS011;3918;42.564;23.164;2024-02-21T18:59:47;12.40;;;11.60;;
7747;SDS011;3918;42.564;23.164;2024-02-21T19:02:14;12.15;;;11.30;;
7747;SDS011;3918;42.564;23.164;2024-02-21T19:04:42;12.35;;;11.40;;
7747;SDS011;3918;42.564;23.164;2024-02-21T19:07:08;11.65;;;10.93;;
7747;SDS011;3918;42.564;23.164;2024-02-21T19:09:35;13.00;;;12.07;;
7747;SDS011;3918;42.564;23.164;2024-02-21T19:12:03;12.93;;;12.02;;
7747;SDS011;3918;42.564;23.164;2024-02-21T19:14:30;13.38;;;12.30;;
7747;SDS011;3918;42.564;23.164;2024-02-21T19:16:57;12.45;;;11.65;;
7747;SDS011;3918;42.564;23.164;2024-02-21T19:19:26;12.82;;;12.02;;
7747;SDS011;3918;42.564;23.164;2024-02-21T19:21:54;11.32;;;10.52;;
7747;SDS011;3918;42.564;23.164;2024-02-21T19:24:21;13.25;;;12.32;;
7747;SDS011;3918;42.564;23.164;2024-02-21T19:26:47;12.65;;;11.75;;
7747;SDS011;3918;42.564;23.164;2024-02-21T19:29:14;14.27;;;13.07;;
7747;SDS011;3918;42.564;23.164;2024-02-21T19:31:41;13.25;;;12.32;;
7747;SDS011;3918;42.564;23.164;2024-02-21T19:34:08;13.63;;;12.80;;
7747;SDS011;3918;42.564;23.164;2024-02-21T19:36:36;13.00;;;11.90;;
7747;SDS011;3918;42.564;23.164;2024-02-21T19:39:07;13.20;;;12.30;;
7747;SDS011;3918;42.564;23.164;2024-02-21T19:41:35;17.55;;;16.10;;
7747;SDS011;3918;42.564;23.164;2024-02-21T19:44:01;15.18;;;14.07;;
7747;SDS011;3918;42.564;23.164;2024-02-21T19:46:28;13.15;;;12.18;;
